createdAt,value
2018-07-22T00:00:35.126Z,18.93
2018-07-22T00:03:04.702Z,18.37
2018-07-22T00:05:34.079Z,16.97
2018-07-22T00:08:03.436Z,20.07
2018-07-22T00:10:32.786Z,17.43
2018-07-22T00:13:02.018Z,16.97
2018-07-22T00:15:31.309Z,16.30
2018-07-22T00:18:00.597Z,16.93
2018-07-22T00:20:29.902Z,17.97
2018-07-22T00:22:59.291Z,18.70
2018-07-22T00:25:28.635Z,19.90
2018-07-22T00:27:57.863Z,18.10
2018-07-22T00:30:27.206Z,17.27
2018-07-22T00:32:56.602Z,16.40
2018-07-22T00:35:25.834Z,17.73
2018-07-22T00:37:55.029Z,16.37
2018-07-22T00:40:24.369Z,16.00
2018-07-22T00:42:53.646Z,17.07
2018-07-22T00:45:22.941Z,16.03
2018-07-22T00:47:52.218Z,15.33
2018-07-22T00:50:21.564Z,14.00
2018-07-22T00:52:50.818Z,16.13
2018-07-22T00:55:20.027Z,15.00
2018-07-22T00:57:49.399Z,16.07
2018-07-22T01:00:19.478Z,16.47
2018-07-22T01:02:48.827Z,16.93
2018-07-22T01:05:18.182Z,17.87
2018-07-22T01:07:47.458Z,18.30
2018-07-22T01:10:16.778Z,17.40
2018-07-22T01:12:46.019Z,16.70
2018-07-22T01:15:15.404Z,18.43
2018-07-22T01:17:44.857Z,17.43
2018-07-22T01:20:14.175Z,20.17
2018-07-22T01:22:43.468Z,19.90
2018-07-22T01:25:12.707Z,24.70
2018-07-22T01:27:42.004Z,24.23
2018-07-22T01:30:11.671Z,21.10
2018-07-22T01:32:41.045Z,18.60
2018-07-22T01:35:10.368Z,20.37
2018-07-22T01:37:39.662Z,18.03
2018-07-22T01:40:08.989Z,19.43
2018-07-22T01:42:38.219Z,14.80
2018-07-22T01:45:07.526Z,17.67
2018-07-22T01:47:36.836Z,15.77
2018-07-22T01:50:06.455Z,18.80
2018-07-22T01:52:35.854Z,25.20
2018-07-22T01:55:05.201Z,24.23
2018-07-22T01:57:34.454Z,23.83
2018-07-22T02:00:03.869Z,21.13
2018-07-22T02:02:33.154Z,20.33
2018-07-22T02:05:02.587Z,19.50
2018-07-22T02:07:32.002Z,24.50
2018-07-22T02:10:01.310Z,23.73
2018-07-22T02:12:30.626Z,25.40
2018-07-22T02:14:59.894Z,26.33
2018-07-22T02:17:29.275Z,23.30
2018-07-22T02:19:58.144Z,21.90
2018-07-22T02:22:27.362Z,20.67
2018-07-22T02:24:56.540Z,24.27
2018-07-22T02:27:25.800Z,23.37
2018-07-22T02:29:55.063Z,22.17
2018-07-22T02:32:24.394Z,23.80
2018-07-22T02:34:53.687Z,21.70
2018-07-22T02:37:22.956Z,19.87
2018-07-22T02:39:52.195Z,19.57
2018-07-22T02:42:21.442Z,21.70
2018-07-22T02:44:50.618Z,21.93
2018-07-22T02:47:19.972Z,22.40
2018-07-22T02:49:49.364Z,19.47
2018-07-22T02:52:18.641Z,19.93
2018-07-22T02:54:47.932Z,21.60
2018-07-22T02:57:17.282Z,17.73
2018-07-22T02:59:46.624Z,18.70
2018-07-22T03:02:15.877Z,15.63
2018-07-22T03:04:45.155Z,18.20
2018-07-22T03:07:13.854Z,16.07
2018-07-22T03:09:43.168Z,16.33
2018-07-22T03:12:12.459Z,17.93
2018-07-22T03:14:41.729Z,15.83
2018-07-22T03:17:13.092Z,17.77
2018-07-22T03:19:42.292Z,13.73
2018-07-22T03:22:11.574Z,15.87
2018-07-22T03:24:40.795Z,17.83
2018-07-22T03:27:09.974Z,18.27
2018-07-22T03:29:39.194Z,17.37
2018-07-22T03:32:08.481Z,15.80
2018-07-22T03:34:37.645Z,15.47
2018-07-22T03:37:06.928Z,16.53
2018-07-22T03:39:36.208Z,18.03
2018-07-22T03:42:05.505Z,14.77
2018-07-22T03:44:34.775Z,17.10
2018-07-22T03:47:03.963Z,15.87
2018-07-22T03:49:33.139Z,18.40
2018-07-22T03:52:02.423Z,16.87
2018-07-22T03:54:31.764Z,18.47
2018-07-22T03:57:01.037Z,20.07
2018-07-22T03:59:30.322Z,16.73
2018-07-22T04:01:59.710Z,15.80
2018-07-22T04:04:29.044Z,14.43
2018-07-22T04:06:58.484Z,15.90
2018-07-22T04:09:27.726Z,13.10
2018-07-22T04:11:56.903Z,16.77
2018-07-22T04:14:26.180Z,15.80
2018-07-22T04:16:55.471Z,14.97
2018-07-22T04:19:24.703Z,14.70
2018-07-22T04:21:54.001Z,14.70
2018-07-22T04:24:23.307Z,16.87
2018-07-22T04:26:52.491Z,13.63
2018-07-22T04:29:21.967Z,16.40
2018-07-22T04:31:51.266Z,16.30
2018-07-22T04:34:20.803Z,17.97
2018-07-22T04:36:50.041Z,18.80
2018-07-22T04:39:19.383Z,18.13
2018-07-22T04:41:48.701Z,20.43
2018-07-22T04:44:18.026Z,18.03
2018-07-22T04:46:47.359Z,19.40
2018-07-22T04:49:16.608Z,21.93
2018-07-22T04:51:45.936Z,21.00
2018-07-22T04:54:15.283Z,20.87
2018-07-22T04:56:44.539Z,18.77
2018-07-22T04:59:13.832Z,19.10
2018-07-22T05:01:43.119Z,18.57
2018-07-22T05:04:12.418Z,22.67
2018-07-22T05:06:41.660Z,23.03
2018-07-22T05:09:12.451Z,19.90
2018-07-22T05:11:42.172Z,18.27
2018-07-22T05:14:11.466Z,18.30
2018-07-22T05:16:40.800Z,19.13
2018-07-22T05:19:10.079Z,18.10
2018-07-22T05:21:39.362Z,16.47
2018-07-22T05:24:08.618Z,17.20
2018-07-22T05:26:37.906Z,17.10
2018-07-22T05:29:07.212Z,15.37
2018-07-22T05:31:36.490Z,14.63
2018-07-22T05:34:05.859Z,14.93
2018-07-22T05:36:35.150Z,15.43
2018-07-22T05:39:06.320Z,18.10
2018-07-22T05:41:35.568Z,13.20
2018-07-22T05:44:05.080Z,15.93
2018-07-22T05:46:34.395Z,14.53
2018-07-22T05:49:04.036Z,14.40
2018-07-22T05:51:33.735Z,12.77
2018-07-22T05:54:03.214Z,12.60
2018-07-22T05:56:32.550Z,12.50
2018-07-22T05:59:01.841Z,12.87
2018-07-22T06:01:31.147Z,13.40
2018-07-22T06:04:00.429Z,12.87
2018-07-22T06:06:29.718Z,12.60
2018-07-22T06:08:58.926Z,14.63
2018-07-22T06:11:28.214Z,12.70
2018-07-22T06:13:57.448Z,13.53
2018-07-22T06:16:26.727Z,13.43
2018-07-22T06:18:55.909Z,14.37
2018-07-22T06:21:25.118Z,12.27
2018-07-22T06:23:54.406Z,13.67
2018-07-22T06:26:23.647Z,12.67
2018-07-22T06:28:52.850Z,14.67
2018-07-22T06:31:22.162Z,13.00
2018-07-22T06:33:51.562Z,14.40
2018-07-22T06:36:20.839Z,14.80
2018-07-22T06:38:50.193Z,15.03
2018-07-22T06:41:19.444Z,13.57
2018-07-22T06:43:49.878Z,14.87
2018-07-22T06:46:19.358Z,14.40
2018-07-22T06:48:48.615Z,14.13
2018-07-22T06:51:17.992Z,13.90
2018-07-22T06:53:47.275Z,15.13
2018-07-22T06:56:16.603Z,15.53
2018-07-22T06:58:45.828Z,15.33
2018-07-22T07:01:15.040Z,15.57
2018-07-22T07:03:44.326Z,15.13
2018-07-22T07:06:13.579Z,14.67
2018-07-22T07:08:42.893Z,14.40
2018-07-22T07:11:12.138Z,14.27
2018-07-22T07:13:41.398Z,14.10
2018-07-22T07:16:10.711Z,15.87
2018-07-22T07:18:40.012Z,13.53
2018-07-22T07:21:09.355Z,12.97
2018-07-22T07:23:38.582Z,14.03
2018-07-22T07:26:07.894Z,13.87
2018-07-22T07:28:37.246Z,15.33
2018-07-22T07:31:07.036Z,15.13
2018-07-22T07:33:36.425Z,15.90
2018-07-22T07:36:15.063Z,15.10
2018-07-22T07:38:44.355Z,13.43
2018-07-22T07:41:13.710Z,14.43
2018-07-22T07:43:43.095Z,13.40
2018-07-22T07:46:12.363Z,14.90
2018-07-22T07:48:41.585Z,14.00
2018-07-22T07:51:10.802Z,14.70
2018-07-22T07:53:40.061Z,14.07
2018-07-22T07:56:09.458Z,14.80
2018-07-22T07:58:38.658Z,14.87
2018-07-22T08:01:07.862Z,13.40
2018-07-22T08:03:37.214Z,13.67
2018-07-22T08:06:06.514Z,14.97
2018-07-22T08:08:35.778Z,15.17
2018-07-22T08:11:05.243Z,14.53
2018-07-22T08:13:34.610Z,14.90
2018-07-22T08:16:04.016Z,15.40
2018-07-22T08:18:33.322Z,13.83
2018-07-22T08:21:02.688Z,13.17
2018-07-22T08:23:31.881Z,14.07
2018-07-22T08:26:01.276Z,12.93
2018-07-22T08:28:41.296Z,12.63
2018-07-22T08:31:15.863Z,13.73
2018-07-22T08:33:45.215Z,12.30
2018-07-22T08:36:14.624Z,13.47
2018-07-22T08:38:43.959Z,12.30
2018-07-22T08:41:13.278Z,13.07
2018-07-22T08:43:42.594Z,14.63
2018-07-22T08:46:12.126Z,12.63
2018-07-22T08:48:41.454Z,11.90
2018-07-22T08:51:10.704Z,11.73
2018-07-22T08:53:39.957Z,11.53
2018-07-22T08:56:09.218Z,10.37
2018-07-22T08:58:38.505Z,11.30
2018-07-22T09:01:07.958Z,11.27
2018-07-22T09:03:37.239Z,9.87
2018-07-22T09:06:06.651Z,9.60
2018-07-22T09:08:36.018Z,10.73
2018-07-22T09:11:05.269Z,10.20
2018-07-22T09:13:34.547Z,8.47
2018-07-22T09:16:03.812Z,10.33
2018-07-22T09:18:33.127Z,9.80
2018-07-22T09:21:02.531Z,9.83
2018-07-22T09:23:35.615Z,9.97
2018-07-22T09:26:04.916Z,9.37
2018-07-22T09:28:34.587Z,10.03
2018-07-22T09:31:04.295Z,9.37
2018-07-22T09:33:33.610Z,8.77
2018-07-22T09:36:02.733Z,8.97
2018-07-22T09:38:31.285Z,9.10
2018-07-22T09:41:00.343Z,8.87
2018-07-22T09:43:29.618Z,8.83
2018-07-22T09:45:58.677Z,9.67
2018-07-22T09:48:27.737Z,8.70
2018-07-22T09:50:56.890Z,9.67
2018-07-22T09:53:28.134Z,10.40
2018-07-22T09:55:57.266Z,9.33
2018-07-22T09:58:26.319Z,9.30
2018-07-22T10:00:57.787Z,8.07
2018-07-22T10:03:27.778Z,6.40
2018-07-22T10:05:57.123Z,8.20
2018-07-22T10:08:26.405Z,8.30
2018-07-22T10:10:55.458Z,9.00
2018-07-22T10:13:24.549Z,8.60
2018-07-22T10:15:53.156Z,8.40
2018-07-22T10:18:22.297Z,8.00
2018-07-22T10:20:51.375Z,7.87
2018-07-22T10:23:20.428Z,7.87
2018-07-22T10:25:49.467Z,8.43
2018-07-22T10:28:18.472Z,7.03
2018-07-22T10:30:47.519Z,8.63
2018-07-22T10:33:16.588Z,8.60
2018-07-22T10:35:45.603Z,7.63
2018-07-22T10:38:14.659Z,7.60
2018-07-22T10:40:43.746Z,7.63
2018-07-22T10:43:12.914Z,7.80
2018-07-22T10:45:42.074Z,8.33
2018-07-22T10:48:11.609Z,8.33
2018-07-22T10:50:40.826Z,8.20
2018-07-22T10:53:10.027Z,8.33
2018-07-22T10:55:39.329Z,8.63
2018-07-22T10:58:08.770Z,8.20
2018-07-22T11:00:38.034Z,8.10
2018-07-22T11:03:07.963Z,8.37
2018-07-22T11:05:37.264Z,8.03
2018-07-22T11:08:06.631Z,8.03
2018-07-22T11:10:35.843Z,8.17
2018-07-22T11:13:05.148Z,7.80
2018-07-22T11:15:34.927Z,7.70
2018-07-22T11:18:04.247Z,8.27
2018-07-22T11:20:33.502Z,7.70
2018-07-22T11:23:02.766Z,8.00
2018-07-22T11:25:32.035Z,7.43
2018-07-22T11:28:01.313Z,7.40
2018-07-22T11:30:30.625Z,7.67
2018-07-22T11:32:59.855Z,8.27
2018-07-22T11:35:29.162Z,9.03
2018-07-22T11:37:58.445Z,8.37
2018-07-22T11:43:21.566Z,7.73
2018-07-22T11:45:50.757Z,7.30
2018-07-22T11:48:20.014Z,7.30
2018-07-22T11:50:49.344Z,7.77
2018-07-22T11:53:18.611Z,8.00
2018-07-22T11:55:47.882Z,7.17
2018-07-22T11:58:16.639Z,7.53
2018-07-22T12:00:48.874Z,7.53
2018-07-22T12:03:21.932Z,7.83
2018-07-22T12:05:51.211Z,7.70
2018-07-22T12:08:20.560Z,7.87
2018-07-22T12:10:49.846Z,8.27
2018-07-22T12:13:19.084Z,8.03
2018-07-22T12:15:48.299Z,6.90
2018-07-22T12:18:17.522Z,8.10
2018-07-22T12:20:46.829Z,7.60
2018-07-22T12:23:16.210Z,8.03
2018-07-22T12:25:45.727Z,7.60
2018-07-22T12:28:15.099Z,7.60
2018-07-22T12:30:44.335Z,7.80
2018-07-22T12:33:13.566Z,8.93
2018-07-22T12:35:42.842Z,7.13
2018-07-22T12:38:12.341Z,8.40
2018-07-22T12:40:41.570Z,8.33
2018-07-22T12:43:10.919Z,7.67
2018-07-22T12:45:40.251Z,8.07
2018-07-22T12:48:09.539Z,12.80
2018-07-22T12:50:39.060Z,8.73
2018-07-22T12:53:08.815Z,8.40
2018-07-22T12:55:38.743Z,12.40
2018-07-22T12:58:08.155Z,9.03
2018-07-22T13:00:37.790Z,9.53
2018-07-22T13:03:07.079Z,7.55
2018-07-22T13:05:37.170Z,8.37
2018-07-22T13:08:07.024Z,7.83
2018-07-22T13:10:36.512Z,7.17
2018-07-22T13:13:05.943Z,7.33
2018-07-22T13:15:35.227Z,8.20
2018-07-22T13:18:04.582Z,7.85
2018-07-22T13:20:34.027Z,7.50
2018-07-22T13:23:03.417Z,8.63
2018-07-22T13:25:32.702Z,8.17
2018-07-22T13:28:02.069Z,8.00
2018-07-22T13:30:31.419Z,8.15
2018-07-22T13:33:00.739Z,7.85
2018-07-22T13:35:30.249Z,8.35
2018-07-22T13:37:59.863Z,6.97
2018-07-22T13:40:29.058Z,8.08
2018-07-22T13:42:58.317Z,7.30
2018-07-22T13:45:27.751Z,8.43
2018-07-22T13:47:57.034Z,7.53
2018-07-22T13:50:26.355Z,8.45
2018-07-22T13:52:55.963Z,9.75
2018-07-22T13:55:25.250Z,9.08
2018-07-22T13:57:54.558Z,8.83
2018-07-22T14:00:24.054Z,8.70
2018-07-22T14:02:53.303Z,9.17
2018-07-22T14:05:22.638Z,9.15
2018-07-22T14:07:51.957Z,9.10
2018-07-22T14:10:21.296Z,9.20
2018-07-22T14:12:50.620Z,9.60
2018-07-22T14:15:19.844Z,8.80
2018-07-22T14:17:49.205Z,9.33
2018-07-22T14:20:18.610Z,8.00
2018-07-22T14:22:47.908Z,9.38
2018-07-22T14:25:17.251Z,7.77
2018-07-22T14:27:46.545Z,8.33
2018-07-22T14:30:15.912Z,7.87
2018-07-22T14:32:45.182Z,8.27
2018-07-22T14:35:14.471Z,8.33
2018-07-22T14:37:43.791Z,8.37
2018-07-22T14:40:13.192Z,8.07
2018-07-22T14:42:42.588Z,8.30
2018-07-22T14:45:11.955Z,8.40
2018-07-22T14:47:41.274Z,8.33
2018-07-22T14:50:10.626Z,8.83
2018-07-22T14:52:40.007Z,8.08
2018-07-22T14:55:09.626Z,7.92
2018-07-22T14:57:39.013Z,8.60
2018-07-22T15:00:08.738Z,8.43
2018-07-22T15:02:38.106Z,7.78
2018-07-22T15:05:07.748Z,7.75
2018-07-22T15:07:37.562Z,7.65
2018-07-22T15:10:06.939Z,7.78
2018-07-22T15:12:36.319Z,8.18
2018-07-22T15:15:05.717Z,8.30
2018-07-22T15:17:35.141Z,9.90
2018-07-22T15:20:04.590Z,8.18
2018-07-22T15:22:33.946Z,8.90
2018-07-22T15:25:03.210Z,8.75
2018-07-22T15:27:32.551Z,8.35
2018-07-22T15:30:01.858Z,8.43
2018-07-22T15:32:31.162Z,7.80
2018-07-22T15:35:00.523Z,7.33
2018-07-22T15:37:29.825Z,6.50
2018-07-22T15:39:59.492Z,6.73
2018-07-22T15:42:28.751Z,6.63
2018-07-22T15:44:58.060Z,7.60
2018-07-22T15:47:27.355Z,10.07
2018-07-22T15:49:56.736Z,14.23
2018-07-22T15:52:26.073Z,8.30
2018-07-22T15:54:55.364Z,8.67
2018-07-22T15:57:24.706Z,15.83
2018-07-22T15:59:53.926Z,9.40
2018-07-22T16:02:23.187Z,18.17
2018-07-22T16:04:52.524Z,9.20
2018-07-22T16:07:21.871Z,9.07
2018-07-22T16:09:51.060Z,10.00
2018-07-22T16:12:20.219Z,8.40
2018-07-22T16:14:49.527Z,10.37
2018-07-22T16:17:18.859Z,11.60
2018-07-22T16:19:48.153Z,12.90
2018-07-22T16:22:17.438Z,11.77
2018-07-22T16:24:46.688Z,11.90
2018-07-22T16:27:15.995Z,11.07
2018-07-22T16:29:45.480Z,10.67
2018-07-22T16:32:14.807Z,9.67
2018-07-22T16:34:44.139Z,10.50
2018-07-22T16:37:13.501Z,12.17
2018-07-22T16:39:42.768Z,12.30
2018-07-22T16:42:12.139Z,12.93
2018-07-22T16:44:41.416Z,12.80
2018-07-22T16:47:10.722Z,14.43
2018-07-22T16:49:39.946Z,11.67
2018-07-22T16:52:09.247Z,12.03
2018-07-22T16:54:38.555Z,12.77
2018-07-22T16:57:08.104Z,10.43
2018-07-22T16:59:37.421Z,11.33
2018-07-22T17:02:06.830Z,11.57
2018-07-22T17:04:36.129Z,11.50
2018-07-22T17:07:05.393Z,11.00
2018-07-22T17:09:34.658Z,11.60
2018-07-22T17:12:03.915Z,11.53
2018-07-22T17:14:33.190Z,14.37
2018-07-22T17:17:02.475Z,13.73
2018-07-22T17:19:33.375Z,11.70
2018-07-22T17:22:02.656Z,11.97
2018-07-22T17:24:31.938Z,11.87
2018-07-22T17:27:01.216Z,12.50
2018-07-22T17:29:30.461Z,12.83
2018-07-22T17:31:59.780Z,13.30
2018-07-22T17:34:29.139Z,13.00
2018-07-22T17:36:59.075Z,12.23
2018-07-22T17:39:28.664Z,13.13
2018-07-22T17:41:58.276Z,15.03
2018-07-22T17:44:27.561Z,14.47
2018-07-22T17:46:56.911Z,13.73
2018-07-22T17:49:26.232Z,12.97
2018-07-22T17:51:55.508Z,13.77
2018-07-22T17:54:25.075Z,13.83
2018-07-22T17:56:54.343Z,14.70
2018-07-22T17:59:23.649Z,13.83
2018-07-22T18:01:52.971Z,13.97
2018-07-22T18:04:22.290Z,13.87
2018-07-22T18:06:51.617Z,11.60
2018-07-22T18:09:21.063Z,13.87
2018-07-22T18:11:50.793Z,13.60
2018-07-22T18:14:20.355Z,15.80
2018-07-22T18:16:49.734Z,15.93
2018-07-22T18:19:19.027Z,12.60
2018-07-22T18:21:48.306Z,14.03
2018-07-22T18:24:17.629Z,16.47
2018-07-22T18:26:46.987Z,16.70
2018-07-22T18:29:20.076Z,17.27
2018-07-22T18:31:48.867Z,16.33
2018-07-22T18:34:17.728Z,15.90
2018-07-22T18:36:47.121Z,15.33
2018-07-22T18:39:16.491Z,17.53
2018-07-22T18:41:45.926Z,17.40
2018-07-22T18:44:15.180Z,18.03
2018-07-22T18:46:44.563Z,17.30
2018-07-22T18:49:13.938Z,14.33
2018-07-22T18:51:43.287Z,14.67
2018-07-22T18:54:12.617Z,13.60
2018-07-22T18:56:41.883Z,13.97
2018-07-22T18:59:11.179Z,13.47
2018-07-22T19:01:40.381Z,14.50
2018-07-22T19:04:09.680Z,14.97
2018-07-22T19:06:38.408Z,15.40
2018-07-22T19:09:10.010Z,16.23
2018-07-22T19:11:39.839Z,13.83
2018-07-22T19:14:09.219Z,13.33
2018-07-22T19:16:38.547Z,14.43
2018-07-22T19:19:07.837Z,15.13
2018-07-22T19:21:40.266Z,14.50
2018-07-22T19:24:09.632Z,14.50
2018-07-22T19:26:38.942Z,14.63
2018-07-22T19:29:09.114Z,14.40
2018-07-22T19:31:38.701Z,16.43
2018-07-22T19:34:15.241Z,15.40
2018-07-22T19:36:44.734Z,20.82
2018-07-22T19:39:19.960Z,17.83
2018-07-22T19:42:01.422Z,18.70
2018-07-22T19:44:30.823Z,16.60
2018-07-22T19:47:04.023Z,16.47
2018-07-22T19:49:33.391Z,15.37
2018-07-22T19:52:02.615Z,13.57
2018-07-22T19:54:31.937Z,16.30
2018-07-22T19:57:01.207Z,16.77
2018-07-22T19:59:30.578Z,17.50
2018-07-22T20:01:59.884Z,16.23
2018-07-22T20:04:29.273Z,15.37
2018-07-22T20:06:58.671Z,13.87
2018-07-22T20:09:27.911Z,14.57
2018-07-22T20:11:57.247Z,14.37
2018-07-22T20:14:26.516Z,14.50
2018-07-22T20:16:55.929Z,14.57
2018-07-22T20:19:25.245Z,13.23
2018-07-22T20:21:54.522Z,13.70
2018-07-22T20:24:23.870Z,13.73
2018-07-22T20:26:53.142Z,13.90
2018-07-22T20:29:22.427Z,12.60
2018-07-22T20:31:51.763Z,11.87
2018-07-22T20:34:21.083Z,13.83
2018-07-22T20:36:50.350Z,16.10
2018-07-22T20:39:19.627Z,15.30
2018-07-22T20:41:48.954Z,13.63
2018-07-22T20:44:18.223Z,14.53
2018-07-22T20:46:47.491Z,11.77
2018-07-22T20:49:16.768Z,13.23
2018-07-22T20:51:46.090Z,13.80
2018-07-22T20:54:15.432Z,13.83
2018-07-22T20:56:44.735Z,14.50
2018-07-22T20:59:14.152Z,14.63
2018-07-22T21:01:43.562Z,13.87
2018-07-22T21:04:12.892Z,13.23
2018-07-22T21:06:42.298Z,12.20
2018-07-22T21:09:11.595Z,13.47
2018-07-22T21:11:51.671Z,13.23
2018-07-22T21:14:21.062Z,13.07
2018-07-22T21:16:50.437Z,12.70
2018-07-22T21:19:19.754Z,14.33
2018-07-22T21:21:49.101Z,10.90
2018-07-22T21:24:18.487Z,14.30
2018-07-22T21:26:47.831Z,16.00
2018-07-22T21:29:17.139Z,15.60
2018-07-22T21:31:46.513Z,16.47
2018-07-22T21:34:15.883Z,17.10
2018-07-22T21:36:45.460Z,13.60
2018-07-22T21:39:14.700Z,16.77
2018-07-22T21:41:44.026Z,16.43
2018-07-22T21:44:13.447Z,15.70
2018-07-22T21:46:42.713Z,16.70
2018-07-22T21:49:11.986Z,16.97
2018-07-22T21:51:41.335Z,17.13
2018-07-22T21:54:10.543Z,14.70
2018-07-22T21:56:39.266Z,15.63
2018-07-22T21:59:08.575Z,17.50
2018-07-22T22:01:37.943Z,17.33
2018-07-22T22:04:07.260Z,16.00
2018-07-22T22:06:36.559Z,17.23
2018-07-22T22:09:07.429Z,15.43
2018-07-22T22:11:36.853Z,14.40
2018-07-22T22:14:06.728Z,13.43
2018-07-22T22:16:36.012Z,15.10
2018-07-22T22:19:05.375Z,14.43
2018-07-22T22:21:34.606Z,15.60
2018-07-22T22:24:03.980Z,16.87
2018-07-22T22:26:33.187Z,15.60
2018-07-22T22:29:01.929Z,16.37
2018-07-22T22:31:31.191Z,16.73
2018-07-22T22:34:00.452Z,16.07
2018-07-22T22:36:29.790Z,15.67
2018-07-22T22:38:59.018Z,15.47
2018-07-22T22:41:29.020Z,15.43
2018-07-22T22:43:58.303Z,15.50
2018-07-22T22:46:27.621Z,14.07
2018-07-22T22:48:57.212Z,13.53
2018-07-22T22:51:26.667Z,12.73
2018-07-22T22:53:55.991Z,16.17
2018-07-22T22:56:25.214Z,15.60
2018-07-22T22:59:05.439Z,14.03
2018-07-22T23:01:34.764Z,15.70
2018-07-22T23:04:04.197Z,15.67
2018-07-22T23:06:33.532Z,14.67
2018-07-22T23:09:02.935Z,15.10
2018-07-22T23:11:32.260Z,14.00
2018-07-22T23:14:01.544Z,13.47
2018-07-22T23:16:30.879Z,13.73
2018-07-22T23:19:00.245Z,12.30
2018-07-22T23:21:29.539Z,13.33
2018-07-22T23:23:59.095Z,11.80
2018-07-22T23:26:28.601Z,12.03
2018-07-22T23:28:57.858Z,11.67
2018-07-22T23:31:27.172Z,11.83
2018-07-22T23:33:56.786Z,12.37
2018-07-22T23:36:26.087Z,13.53
2018-07-22T23:38:55.392Z,13.53
2018-07-22T23:41:24.667Z,13.20
2018-07-22T23:43:53.987Z,11.43
2018-07-22T23:46:23.294Z,12.03
2018-07-22T23:48:52.097Z,12.40
2018-07-22T23:51:21.440Z,13.47
2018-07-22T23:53:50.689Z,13.10
2018-07-22T23:56:20.002Z,12.10
2018-07-22T23:58:49.374Z,13.37
